sensor_id;sensor_type;location;lat;lon;timestamp;temperature;humidity
3752;DHT22;50827;47.014;7.652;2022-10-16T00:01:15;14.60;99.90
3752;DHT22;50827;47.014;7.652;2022-10-16T00:04:02;14.60;99.90
3752;DHT22;50827;47.014;7.652;2022-10-16T00:06:49;14.60;99.90
3752;DHT22;50827;47.014;7.652;2022-10-16T00:09:36;14.70;99.90
3752;DHT22;50827;47.014;7.652;2022-10-16T00:12:23;14.70;99.90
3752;DHT22;50827;47.014;7.652;2022-10-16T00:15:10;14.70;99.90
3752;DHT22;50827;47.014;7.652;2022-10-16T00:17:58;14.60;99.90
3752;DHT22;50827;47.014;7.652;2022-10-16T00:20:45;14.70;99.90
3752;DHT22;50827;47.014;7.652;2022-10-16T00:23:32;14.60;99.90
3752;DHT22;50827;47.014;7.652;2022-10-16T00:26:20;14.70;99.90
3752;DHT22;50827;47.014;7.652;2022-10-16T00:29:08;14.70;99.90
3752;DHT22;50827;47.014;7.652;2022-10-16T00:31:55;14.70;99.90
3752;DHT22;50827;47.014;7.652;2022-10-16T00:34:42;14.60;99.90
3752;DHT22;50827;47.014;7.652;2022-10-16T00:37:29;14.70;99.90
3752;DHT22;50827;47.014;7.652;2022-10-16T00:40:16;14.70;99.90
3752;DHT22;50827;47.014;7.652;2022-10-16T00:43:13;14.70;99.90
3752;DHT22;50827;47.014;7.652;2022-10-16T00:46:02;14.70;99.90
3752;DHT22;50827;47.014;7.652;2022-10-16T00:49:07;14.80;99.90
3752;DHT22;50827;47.014;7.652;2022-10-16T00:51:54;14.70;99.90
3752;DHT22;50827;47.014;7.652;2022-10-16T00:54:42;14.80;99.90
3752;DHT22;50827;47.014;7.652;2022-10-16T00:57:29;14.70;99.90
3752;DHT22;50827;47.014;7.652;2022-10-16T01:00:20;14.70;99.90
3752;DHT22;50827;47.014;7.652;2022-10-16T01:03:27;14.70;99.90
3752;DHT22;50827;47.014;7.652;2022-10-16T01:06:22;14.70;99.90
3752;DHT22;50827;47.014;7.652;2022-10-16T01:15:41;14.70;99.90
3752;DHT22;50827;47.014;7.652;2022-10-16T01:21:32;14.70;99.90
3752;DHT22;50827;47.014;7.652;2022-10-16T01:24:32;14.60;99.90
3752;DHT22;50827;47.014;7.652;2022-10-16T01:27:29;14.70;99.90
3752;DHT22;50827;47.014;7.652;2022-10-16T01:30:26;14.70;99.90
3752;DHT22;50827;47.014;7.652;2022-10-16T01:33:19;14.70;99.90
3752;DHT22;50827;47.014;7.652;2022-10-16T01:36:12;14.60;99.90
3752;DHT22;50827;47.014;7.652;2022-10-16T01:39:01;14.60;99.90
3752;DHT22;50827;47.014;7.652;2022-10-16T01:41:54;14.50;99.90
3752;DHT22;50827;47.014;7.652;2022-10-16T01:44:42;14.50;99.90
3752;DHT22;50827;47.014;7.652;2022-10-16T01:47:31;14.50;99.90
3752;DHT22;50827;47.014;7.652;2022-10-16T01:50:19;14.50;99.90
3752;DHT22;50827;47.014;7.652;2022-10-16T01:53:10;14.50;99.90
3752;DHT22;50827;47.014;7.652;2022-10-16T01:55:59;14.50;99.90
3752;DHT22;50827;47.014;7.652;2022-10-16T01:58:53;14.50;99.90
3752;DHT22;50827;47.014;7.652;2022-10-16T02:01:48;14.50;99.90
3752;DHT22;50827;47.014;7.652;2022-10-16T02:04:43;14.50;99.90
3752;DHT22;50827;47.014;7.652;2022-10-16T02:07:30;14.50;99.90
3752;DHT22;50827;47.014;7.652;2022-10-16T02:10:17;14.40;99.90
3752;DHT22;50827;47.014;7.652;2022-10-16T02:16:41;14.40;99.90
3752;DHT22;50827;47.014;7.652;2022-10-16T02:19:28;14.40;99.90
3752;DHT22;50827;47.014;7.652;2022-10-16T02:22:21;14.40;99.90
3752;DHT22;50827;47.014;7.652;2022-10-16T02:25:24;14.30;99.90
3752;DHT22;50827;47.014;7.652;2022-10-16T02:28:22;14.40;99.90
3752;DHT22;50827;47.014;7.652;2022-10-16T02:31:13;14.30;99.90
3752;DHT22;50827;47.014;7.652;2022-10-16T02:34:04;14.40;99.90
3752;DHT22;50827;47.014;7.652;2022-10-16T02:36:53;14.40;99.90
3752;DHT22;50827;47.014;7.652;2022-10-16T02:39:41;14.30;99.90
3752;DHT22;50827;47.014;7.652;2022-10-16T02:42:36;14.30;99.90
3752;DHT22;50827;47.014;7.652;2022-10-16T02:45:24;14.30;99.90
3752;DHT22;50827;47.014;7.652;2022-10-16T02:48:11;14.30;99.90
3752;DHT22;50827;47.014;7.652;2022-10-16T02:50:58;14.30;99.90
3752;DHT22;50827;47.014;7.652;2022-10-16T02:53:45;14.30;99.90
3752;DHT22;50827;47.014;7.652;2022-10-16T02:56:32;14.30;99.90
3752;DHT22;50827;47.014;7.652;2022-10-16T02:59:19;14.40;99.90
3752;DHT22;50827;47.014;7.652;2022-10-16T03:02:06;14.30;99.90
3752;DHT22;50827;47.014;7.652;2022-10-16T03:04:53;14.30;99.90
3752;DHT22;50827;47.014;7.652;2022-10-16T03:07:40;14.30;99.90
3752;DHT22;50827;47.014;7.652;2022-10-16T03:10:27;14.30;99.90
3752;DHT22;50827;47.014;7.652;2022-10-16T03:13:14;14.30;99.90
3752;DHT22;50827;47.014;7.652;2022-10-16T03:16:01;14.30;99.90
3752;DHT22;50827;47.014;7.652;2022-10-16T03:18:49;14.20;99.90
3752;DHT22;50827;47.014;7.652;2022-10-16T03:21:36;14.20;99.90
3752;DHT22;50827;47.014;7.652;2022-10-16T03:24:23;14.20;99.90
3752;DHT22;50827;47.014;7.652;2022-10-16T03:27:10;14.30;99.90
3752;DHT22;50827;47.014;7.652;2022-10-16T03:29:57;14.20;99.90
3752;DHT22;50827;47.014;7.652;2022-10-16T03:32:44;14.20;99.90
3752;DHT22;50827;47.014;7.652;2022-10-16T03:35:32;14.20;99.90
3752;DHT22;50827;47.014;7.652;2022-10-16T03:38:20;14.20;99.90
3752;DHT22;50827;47.014;7.652;2022-10-16T03:41:07;14.30;99.90
3752;DHT22;50827;47.014;7.652;2022-10-16T03:43:54;14.30;99.90
3752;DHT22;50827;47.014;7.652;2022-10-16T03:46:41;14.30;99.90
3752;DHT22;50827;47.014;7.652;2022-10-16T03:49:28;14.30;99.90
3752;DHT22;50827;47.014;7.652;2022-10-16T03:52:15;14.30;99.90
3752;DHT22;50827;47.014;7.652;2022-10-16T03:55:02;14.30;99.90
3752;DHT22;50827;47.014;7.652;2022-10-16T03:57:50;14.30;99.90
3752;DHT22;50827;47.014;7.652;2022-10-16T04:00:41;14.30;99.90
3752;DHT22;50827;47.014;7.652;2022-10-16T04:03:28;14.30;99.90
3752;DHT22;50827;47.014;7.652;2022-10-16T04:06:15;14.30;99.90
3752;DHT22;50827;47.014;7.652;2022-10-16T04:09:03;14.30;99.90
3752;DHT22;50827;47.014;7.652;2022-10-16T04:11:50;14.20;99.90
3752;DHT22;50827;47.014;7.652;2022-10-16T04:14:37;14.20;99.90
3752;DHT22;50827;47.014;7.652;2022-10-16T04:17:24;14.20;99.90
3752;DHT22;50827;47.014;7.652;2022-10-16T04:20:11;14.20;99.90
3752;DHT22;50827;47.014;7.652;2022-10-16T04:22:58;14.10;99.90
3752;DHT22;50827;47.014;7.652;2022-10-16T04:25:45;14.10;99.90
3752;DHT22;50827;47.014;7.652;2022-10-16T04:28:32;14.10;99.90
3752;DHT22;50827;47.014;7.652;2022-10-16T04:31:20;14.20;99.90
3752;DHT22;50827;47.014;7.652;2022-10-16T04:34:07;14.10;99.90
3752;DHT22;50827;47.014;7.652;2022-10-16T04:36:54;14.20;99.90
3752;DHT22;50827;47.014;7.652;2022-10-16T04:39:41;14.20;99.90
3752;DHT22;50827;47.014;7.652;2022-10-16T04:42:28;14.20;99.90
3752;DHT22;50827;47.014;7.652;2022-10-16T04:45:15;14.20;99.90
3752;DHT22;50827;47.014;7.652;2022-10-16T04:48:03;14.20;99.90
3752;DHT22;50827;47.014;7.652;2022-10-16T04:50:50;14.20;99.90
3752;DHT22;50827;47.014;7.652;2022-10-16T04:53:41;14.20;99.90
3752;DHT22;50827;47.014;7.652;2022-10-16T04:56:28;14.10;99.90
3752;DHT22;50827;47.014;7.652;2022-10-16T04:59:15;14.10;99.90
3752;DHT22;50827;47.014;7.652;2022-10-16T05:02:02;14.10;99.90
3752;DHT22;50827;47.014;7.652;2022-10-16T05:04:49;14.10;99.90
3752;DHT22;50827;47.014;7.652;2022-10-16T05:07:36;14.10;99.90
3752;DHT22;50827;47.014;7.652;2022-10-16T05:10:23;14.10;99.90
3752;DHT22;50827;47.014;7.652;2022-10-16T05:13:10;14.10;99.90
3752;DHT22;50827;47.014;7.652;2022-10-16T05:15:57;14.10;99.90
3752;DHT22;50827;47.014;7.652;2022-10-16T05:18:44;14.10;99.90
3752;DHT22;50827;47.014;7.652;2022-10-16T05:21:31;14.10;99.90
3752;DHT22;50827;47.014;7.652;2022-10-16T05:24:18;14.10;99.90
3752;DHT22;50827;47.014;7.652;2022-10-16T05:27:05;14.10;99.90
3752;DHT22;50827;47.014;7.652;2022-10-16T05:29:52;14.10;99.90
3752;DHT22;50827;47.014;7.652;2022-10-16T05:32:39;14.10;99.90
3752;DHT22;50827;47.014;7.652;2022-10-16T05:35:26;14.10;99.90
3752;DHT22;50827;47.014;7.652;2022-10-16T05:38:13;14.00;99.90
3752;DHT22;50827;47.014;7.652;2022-10-16T05:41:01;14.00;99.90
3752;DHT22;50827;47.014;7.652;2022-10-16T05:43:48;14.00;99.90
3752;DHT22;50827;47.014;7.652;2022-10-16T05:46:35;13.90;99.90
3752;DHT22;50827;47.014;7.652;2022-10-16T05:49:22;14.00;99.90
3752;DHT22;50827;47.014;7.652;2022-10-16T05:52:09;14.00;99.90
3752;DHT22;50827;47.014;7.652;2022-10-16T05:54:56;14.00;99.90
3752;DHT22;50827;47.014;7.652;2022-10-16T05:57:43;14.00;99.90
3752;DHT22;50827;47.014;7.652;2022-10-16T06:00:30;14.00;99.90
3752;DHT22;50827;47.014;7.652;2022-10-16T06:03:17;14.00;99.90
3752;DHT22;50827;47.014;7.652;2022-10-16T06:06:15;14.10;99.90
3752;DHT22;50827;47.014;7.652;2022-10-16T06:09:03;14.10;99.90
3752;DHT22;50827;47.014;7.652;2022-10-16T06:11:50;14.10;99.90
3752;DHT22;50827;47.014;7.652;2022-10-16T06:14:37;14.10;99.90
3752;DHT22;50827;47.014;7.652;2022-10-16T06:17:24;14.00;99.90
3752;DHT22;50827;47.014;7.652;2022-10-16T06:20:11;14.00;99.90
3752;DHT22;50827;47.014;7.652;2022-10-16T06:22:59;14.00;99.90
3752;DHT22;50827;47.014;7.652;2022-10-16T06:25:46;14.00;99.90
3752;DHT22;50827;47.014;7.652;2022-10-16T06:28:33;14.10;99.90
3752;DHT22;50827;47.014;7.652;2022-10-16T06:31:20;14.10;99.90
3752;DHT22;50827;47.014;7.652;2022-10-16T06:34:10;14.10;99.90
3752;DHT22;50827;47.014;7.652;2022-10-16T06:36:58;14.00;99.90
3752;DHT22;50827;47.014;7.652;2022-10-16T06:39:48;14.10;99.90
3752;DHT22;50827;47.014;7.652;2022-10-16T06:42:35;14.10;99.90
3752;DHT22;50827;47.014;7.652;2022-10-16T06:45:21;14.10;99.90
3752;DHT22;50827;47.014;7.652;2022-10-16T06:48:08;14.20;99.90
3752;DHT22;50827;47.014;7.652;2022-10-16T06:51:04;14.20;99.90
3752;DHT22;50827;47.014;7.652;2022-10-16T06:53:56;14.10;99.90
3752;DHT22;50827;47.014;7.652;2022-10-16T06:56:51;14.20;99.90
3752;DHT22;50827;47.014;7.652;2022-10-16T06:59:38;14.20;99.90
3752;DHT22;50827;47.014;7.652;2022-10-16T07:02:25;14.20;99.90
3752;DHT22;50827;47.014;7.652;2022-10-16T07:05:13;14.20;99.90
3752;DHT22;50827;47.014;7.652;2022-10-16T07:08:00;14.30;99.90
3752;DHT22;50827;47.014;7.652;2022-10-16T07:10:47;14.30;99.90
3752;DHT22;50827;47.014;7.652;2022-10-16T07:13:39;14.30;99.90
3752;DHT22;50827;47.014;7.652;2022-10-16T07:16:28;14.30;99.90
3752;DHT22;50827;47.014;7.652;2022-10-16T07:19:15;14.30;99.90
3752;DHT22;50827;47.014;7.652;2022-10-16T07:22:04;14.40;99.90
3752;DHT22;50827;47.014;7.652;2022-10-16T07:24:51;14.40;99.90
3752;DHT22;50827;47.014;7.652;2022-10-16T07:27:39;14.50;99.90
3752;DHT22;50827;47.014;7.652;2022-10-16T07:30:26;14.50;99.90
3752;DHT22;50827;47.014;7.652;2022-10-16T07:33:13;14.50;99.90
3752;DHT22;50827;47.014;7.652;2022-10-16T07:36:00;14.60;99.90
3752;DHT22;50827;47.014;7.652;2022-10-16T07:38:48;14.60;99.90
3752;DHT22;50827;47.014;7.652;2022-10-16T07:41:35;14.60;99.90
3752;DHT22;50827;47.014;7.652;2022-10-16T07:44:23;14.70;99.90
3752;DHT22;50827;47.014;7.652;2022-10-16T07:47:10;14.70;99.90
3752;DHT22;50827;47.014;7.652;2022-10-16T07:49:57;14.70;99.90
3752;DHT22;50827;47.014;7.652;2022-10-16T07:52:44;14.80;99.90
3752;DHT22;50827;47.014;7.652;2022-10-16T07:55:31;14.80;99.90
3752;DHT22;50827;47.014;7.652;2022-10-16T07:58:18;14.80;99.90
3752;DHT22;50827;47.014;7.652;2022-10-16T08:01:10;14.80;99.90
3752;DHT22;50827;47.014;7.652;2022-10-16T08:03:58;14.80;99.90
3752;DHT22;50827;47.014;7.652;2022-10-16T08:06:45;14.80;99.90
3752;DHT22;50827;47.014;7.652;2022-10-16T08:09:32;14.80;99.90
3752;DHT22;50827;47.014;7.652;2022-10-16T08:12:19;14.70;99.90
3752;DHT22;50827;47.014;7.652;2022-10-16T08:15:06;14.80;99.90
3752;DHT22;50827;47.014;7.652;2022-10-16T08:18:02;14.70;99.90
3752;DHT22;50827;47.014;7.652;2022-10-16T08:20:56;14.70;99.90
3752;DHT22;50827;47.014;7.652;2022-10-16T08:23:43;14.80;99.90
3752;DHT22;50827;47.014;7.652;2022-10-16T08:26:31;14.80;99.90
3752;DHT22;50827;47.014;7.652;2022-10-16T08:29:18;14.80;99.90
3752;DHT22;50827;47.014;7.652;2022-10-16T08:32:05;14.70;99.90
3752;DHT22;50827;47.014;7.652;2022-10-16T08:34:52;14.70;99.90
3752;DHT22;50827;47.014;7.652;2022-10-16T08:37:39;14.80;99.90
3752;DHT22;50827;47.014;7.652;2022-10-16T08:40:29;14.80;99.90
3752;DHT22;50827;47.014;7.652;2022-10-16T08:49:17;15.10;99.90
3752;DHT22;50827;47.014;7.652;2022-10-16T08:52:06;15.10;99.90
3752;DHT22;50827;47.014;7.652;2022-10-16T08:54:57;15.20;99.90
3752;DHT22;50827;47.014;7.652;2022-10-16T08:57:44;15.30;99.90
3752;DHT22;50827;47.014;7.652;2022-10-16T09:00:33;15.40;99.90
3752;DHT22;50827;47.014;7.652;2022-10-16T09:03:59;15.50;99.90
3752;DHT22;50827;47.014;7.652;2022-10-16T09:10:48;15.70;99.90
3752;DHT22;50827;47.014;7.652;2022-10-16T09:13:50;15.70;99.90
3752;DHT22;50827;47.014;7.652;2022-10-16T09:16:48;15.70;99.90
3752;DHT22;50827;47.014;7.652;2022-10-16T09:19:41;15.80;99.90
3752;DHT22;50827;47.014;7.652;2022-10-16T09:22:32;15.90;99.90
3752;DHT22;50827;47.014;7.652;2022-10-16T09:25:21;15.90;99.90
3752;DHT22;50827;47.014;7.652;2022-10-16T09:28:08;16.00;99.90
3752;DHT22;50827;47.014;7.652;2022-10-16T09:30:57;16.00;99.90
3752;DHT22;50827;47.014;7.652;2022-10-16T09:33:46;16.10;99.90
3752;DHT22;50827;47.014;7.652;2022-10-16T09:36:43;16.20;99.90
3752;DHT22;50827;47.014;7.652;2022-10-16T09:39:44;16.20;99.90
3752;DHT22;50827;47.014;7.652;2022-10-16T09:42:35;16.30;99.90
3752;DHT22;50827;47.014;7.652;2022-10-16T09:45:23;16.40;99.90
3752;DHT22;50827;47.014;7.652;2022-10-16T09:48:12;16.50;99.90
3752;DHT22;50827;47.014;7.652;2022-10-16T09:51:02;16.50;99.90
3752;DHT22;50827;47.014;7.652;2022-10-16T09:53:58;16.50;99.90
3752;DHT22;50827;47.014;7.652;2022-10-16T09:56:46;16.60;99.90
3752;DHT22;50827;47.014;7.652;2022-10-16T09:59:46;16.70;99.90
3752;DHT22;50827;47.014;7.652;2022-10-16T10:02:35;16.80;99.90
3752;DHT22;50827;47.014;7.652;2022-10-16T10:05:25;16.90;99.90
3752;DHT22;50827;47.014;7.652;2022-10-16T10:08:15;16.90;99.90
3752;DHT22;50827;47.014;7.652;2022-10-16T10:11:04;17.00;99.90
3752;DHT22;50827;47.014;7.652;2022-10-16T10:13:51;17.00;99.90
3752;DHT22;50827;47.014;7.652;2022-10-16T10:16:38;17.10;99.90
3752;DHT22;50827;47.014;7.652;2022-10-16T10:19:27;17.10;99.90
3752;DHT22;50827;47.014;7.652;2022-10-16T10:25:36;17.20;99.90
3752;DHT22;50827;47.014;7.652;2022-10-16T10:29:30;17.30;99.90
3752;DHT22;50827;47.014;7.652;2022-10-16T10:32:06;17.30;99.90
3752;DHT22;50827;47.014;7.652;2022-10-16T10:47:47;17.80;99.90
3752;DHT22;50827;47.014;7.652;2022-10-16T10:51:00;17.80;99.90
3752;DHT22;50827;47.014;7.652;2022-10-16T10:54:01;17.90;99.90
3752;DHT22;50827;47.014;7.652;2022-10-16T10:57:07;18.00;99.90
3752;DHT22;50827;47.014;7.652;2022-10-16T11:06:16;18.20;99.90
3752;DHT22;50827;47.014;7.652;2022-10-16T11:12:21;18.40;99.90
3752;DHT22;50827;47.014;7.652;2022-10-16T11:15:17;18.40;99.90
3752;DHT22;50827;47.014;7.652;2022-10-16T11:18:06;18.50;99.90
3752;DHT22;50827;47.014;7.652;2022-10-16T11:20:57;18.50;99.90
3752;DHT22;50827;47.014;7.652;2022-10-16T11:23:51;18.60;99.90
3752;DHT22;50827;47.014;7.652;2022-10-16T11:26:41;18.70;99.90
3752;DHT22;50827;47.014;7.652;2022-10-16T11:29:30;18.70;99.90
3752;DHT22;50827;47.014;7.652;2022-10-16T11:32:29;18.80;99.90
3752;DHT22;50827;47.014;7.652;2022-10-16T11:35:25;18.80;99.90
3752;DHT22;50827;47.014;7.652;2022-10-16T11:41:37;19.00;99.90
3752;DHT22;50827;47.014;7.652;2022-10-16T11:47:51;19.10;99.90
3752;DHT22;50827;47.014;7.652;2022-10-16T11:50:53;19.20;99.90
3752;DHT22;50827;47.014;7.652;2022-10-16T11:53:59;19.30;99.90
3752;DHT22;50827;47.014;7.652;2022-10-16T11:56:52;19.30;99.90
3752;DHT22;50827;47.014;7.652;2022-10-16T11:59:46;19.30;99.90
3752;DHT22;50827;47.014;7.652;2022-10-16T12:02:48;19.40;99.90
3752;DHT22;50827;47.014;7.652;2022-10-16T12:06:11;19.40;99.90
3752;DHT22;50827;47.014;7.652;2022-10-16T12:09:01;19.50;99.90
3752;DHT22;50827;47.014;7.652;2022-10-16T12:11:49;19.50;99.90
3752;DHT22;50827;47.014;7.652;2022-10-16T12:14:38;19.60;99.90
3752;DHT22;50827;47.014;7.652;2022-10-16T12:17:46;19.70;99.90
3752;DHT22;50827;47.014;7.652;2022-10-16T12:20:33;19.70;99.90
3752;DHT22;50827;47.014;7.652;2022-10-16T12:23:23;19.70;99.90
3752;DHT22;50827;47.014;7.652;2022-10-16T12:26:10;19.80;99.90
3752;DHT22;50827;47.014;7.652;2022-10-16T12:29:23;19.80;99.90
3752;DHT22;50827;47.014;7.652;2022-10-16T12:32:41;19.90;99.90
3752;DHT22;50827;47.014;7.652;2022-10-16T12:35:43;19.90;99.90
3752;DHT22;50827;47.014;7.652;2022-10-16T12:41:35;20.00;99.90
3752;DHT22;50827;47.014;7.652;2022-10-16T12:44:32;20.00;99.90
3752;DHT22;50827;47.014;7.652;2022-10-16T12:47:22;20.00;99.90
3752;DHT22;50827;47.014;7.652;2022-10-16T12:50:37;20.10;99.90
3752;DHT22;50827;47.014;7.652;2022-10-16T12:53:26;20.10;99.90
3752;DHT22;50827;47.014;7.652;2022-10-16T12:56:24;20.20;99.90
3752;DHT22;50827;47.014;7.652;2022-10-16T13:02:35;20.20;99.90
3752;DHT22;50827;47.014;7.652;2022-10-16T13:18:44;20.40;99.90
3752;DHT22;50827;47.014;7.652;2022-10-16T13:28:29;20.50;99.90
3752;DHT22;50827;47.014;7.652;2022-10-16T13:31:20;20.50;99.90
3752;DHT22;50827;47.014;7.652;2022-10-16T13:34:21;20.50;99.90
3752;DHT22;50827;47.014;7.652;2022-10-16T13:37:20;20.50;99.90
3752;DHT22;50827;47.014;7.652;2022-10-16T13:40:33;20.50;99.90
3752;DHT22;50827;47.014;7.652;2022-10-16T13:46:16;20.60;99.90
3752;DHT22;50827;47.014;7.652;2022-10-16T13:49:16;20.60;99.90
3752;DHT22;50827;47.014;7.652;2022-10-16T13:52:04;20.60;99.90
3752;DHT22;50827;47.014;7.652;2022-10-16T13:54:51;20.70;99.90
3752;DHT22;50827;47.014;7.652;2022-10-16T13:57:38;20.70;99.90
3752;DHT22;50827;47.014;7.652;2022-10-16T14:00:28;20.70;99.90
3752;DHT22;50827;47.014;7.652;2022-10-16T14:03:20;20.70;99.90
3752;DHT22;50827;47.014;7.652;2022-10-16T14:06:14;20.70;99.90
3752;DHT22;50827;47.014;7.652;2022-10-16T14:12:15;20.70;99.90
3752;DHT22;50827;47.014;7.652;2022-10-16T14:15:17;20.70;99.90
3752;DHT22;50827;47.014;7.652;2022-10-16T14:18:05;20.80;99.90
3752;DHT22;50827;47.014;7.652;2022-10-16T14:20:52;20.80;99.90
3752;DHT22;50827;47.014;7.652;2022-10-16T14:23:47;20.80;99.90
3752;DHT22;50827;47.014;7.652;2022-10-16T14:26:42;20.70;99.90
3752;DHT22;50827;47.014;7.652;2022-10-16T14:29:36;20.70;99.90
3752;DHT22;50827;47.014;7.652;2022-10-16T14:32:26;20.70;99.90
3752;DHT22;50827;47.014;7.652;2022-10-16T14:35:35;20.70;99.90
3752;DHT22;50827;47.014;7.652;2022-10-16T14:38:23;20.80;99.90
3752;DHT22;50827;47.014;7.652;2022-10-16T14:41:14;20.70;99.90
3752;DHT22;50827;47.014;7.652;2022-10-16T14:44:03;20.70;99.90
3752;DHT22;50827;47.014;7.652;2022-10-16T14:46:51;20.70;99.90
3752;DHT22;50827;47.014;7.652;2022-10-16T14:49:41;20.70;99.90
3752;DHT22;50827;47.014;7.652;2022-10-16T14:52:28;20.80;99.90
3752;DHT22;50827;47.014;7.652;2022-10-16T14:55:15;20.80;99.90
3752;DHT22;50827;47.014;7.652;2022-10-16T14:58:02;20.80;99.90
3752;DHT22;50827;47.014;7.652;2022-10-16T15:00:49;20.70;99.90
3752;DHT22;50827;47.014;7.652;2022-10-16T15:03:37;20.80;99.90
3752;DHT22;50827;47.014;7.652;2022-10-16T15:06:24;20.70;99.90
3752;DHT22;50827;47.014;7.652;2022-10-16T15:09:11;20.70;99.90
3752;DHT22;50827;47.014;7.652;2022-10-16T15:11:58;20.70;99.90
3752;DHT22;50827;47.014;7.652;2022-10-16T15:14:45;20.70;99.90
3752;DHT22;50827;47.014;7.652;2022-10-16T15:17:32;20.70;99.90
3752;DHT22;50827;47.014;7.652;2022-10-16T15:20:19;20.60;99.90
3752;DHT22;50827;47.014;7.652;2022-10-16T15:23:15;20.60;99.90
3752;DHT22;50827;47.014;7.652;2022-10-16T15:26:02;20.60;99.90
3752;DHT22;50827;47.014;7.652;2022-10-16T15:28:49;20.50;99.90
3752;DHT22;50827;47.014;7.652;2022-10-16T15:31:36;20.50;99.90
3752;DHT22;50827;47.014;7.652;2022-10-16T15:34:24;20.40;99.90
3752;DHT22;50827;47.014;7.652;2022-10-16T15:37:11;20.40;99.90
3752;DHT22;50827;47.014;7.652;2022-10-16T15:40:00;20.40;99.90
3752;DHT22;50827;47.014;7.652;2022-10-16T15:42:47;20.30;99.90
3752;DHT22;50827;47.014;7.652;2022-10-16T15:45:35;20.20;99.90
3752;DHT22;50827;47.014;7.652;2022-10-16T15:48:22;20.10;99.90
3752;DHT22;50827;47.014;7.652;2022-10-16T15:51:09;20.10;99.90
3752;DHT22;50827;47.014;7.652;2022-10-16T15:53:56;20.00;99.90
3752;DHT22;50827;47.014;7.652;2022-10-16T15:56:43;19.90;99.90
3752;DHT22;50827;47.014;7.652;2022-10-16T15:59:32;19.90;99.90
3752;DHT22;50827;47.014;7.652;2022-10-16T16:02:19;19.80;99.90
3752;DHT22;50827;47.014;7.652;2022-10-16T16:05:06;19.80;99.90
3752;DHT22;50827;47.014;7.652;2022-10-16T16:07:54;19.70;99.90
3752;DHT22;50827;47.014;7.652;2022-10-16T16:10:42;19.70;99.90
3752;DHT22;50827;47.014;7.652;2022-10-16T16:13:29;19.70;99.90
3752;DHT22;50827;47.014;7.652;2022-10-16T16:16:16;19.60;99.90
3752;DHT22;50827;47.014;7.652;2022-10-16T16:19:04;19.60;99.90
3752;DHT22;50827;47.014;7.652;2022-10-16T16:21:57;19.60;99.90
3752;DHT22;50827;47.014;7.652;2022-10-16T16:24:44;19.50;99.90
3752;DHT22;50827;47.014;7.652;2022-10-16T16:27:31;19.40;99.90
3752;DHT22;50827;47.014;7.652;2022-10-16T16:30:20;19.30;99.90
3752;DHT22;50827;47.014;7.652;2022-10-16T16:33:13;19.10;99.90
3752;DHT22;50827;47.014;7.652;2022-10-16T16:36:02;19.10;99.90
3752;DHT22;50827;47.014;7.652;2022-10-16T16:39:03;19.00;99.90
3752;DHT22;50827;47.014;7.652;2022-10-16T16:41:51;18.90;99.90
3752;DHT22;50827;47.014;7.652;2022-10-16T16:44:47;18.80;99.90
3752;DHT22;50827;47.014;7.652;2022-10-16T16:48:12;18.80;99.90
3752;DHT22;50827;47.014;7.652;2022-10-16T16:51:50;18.60;99.90
3752;DHT22;50827;47.014;7.652;2022-10-16T16:54:44;18.60;99.90
3752;DHT22;50827;47.014;7.652;2022-10-16T16:57:53;18.50;99.90
3752;DHT22;50827;47.014;7.652;2022-10-16T17:01:17;18.50;99.90
3752;DHT22;50827;47.014;7.652;2022-10-16T17:04:45;18.30;99.90
3752;DHT22;50827;47.014;7.652;2022-10-16T17:14:47;18.20;99.90
3752;DHT22;50827;47.014;7.652;2022-10-16T17:17:45;18.10;99.90
3752;DHT22;50827;47.014;7.652;2022-10-16T17:20:58;18.10;99.90
3752;DHT22;50827;47.014;7.652;2022-10-16T17:23:56;18.00;99.90
3752;DHT22;50827;47.014;7.652;2022-10-16T17:30:29;18.00;99.90
3752;DHT22;50827;47.014;7.652;2022-10-16T17:33:17;17.90;99.90
3752;DHT22;50827;47.014;7.652;2022-10-16T17:36:08;17.90;99.90
3752;DHT22;50827;47.014;7.652;2022-10-16T17:39:10;17.80;99.90
3752;DHT22;50827;47.014;7.652;2022-10-16T17:42:33;17.80;99.90
3752;DHT22;50827;47.014;7.652;2022-10-16T17:45:46;17.70;99.90
3752;DHT22;50827;47.014;7.652;2022-10-16T17:48:46;17.70;99.90
3752;DHT22;50827;47.014;7.652;2022-10-16T17:51:43;17.70;99.90
3752;DHT22;50827;47.014;7.652;2022-10-16T17:54:34;17.60;99.90
3752;DHT22;50827;47.014;7.652;2022-10-16T18:00:43;17.50;99.90
3752;DHT22;50827;47.014;7.652;2022-10-16T18:03:49;17.40;99.90
3752;DHT22;50827;47.014;7.652;2022-10-16T18:10:02;17.20;99.90
3752;DHT22;50827;47.014;7.652;2022-10-16T18:13:19;17.20;99.90
3752;DHT22;50827;47.014;7.652;2022-10-16T18:16:37;17.10;99.90
3752;DHT22;50827;47.014;7.652;2022-10-16T18:19:30;17.10;99.90
3752;DHT22;50827;47.014;7.652;2022-10-16T18:22:23;17.00;99.90
3752;DHT22;50827;47.014;7.652;2022-10-16T18:25:22;17.00;99.90
3752;DHT22;50827;47.014;7.652;2022-10-16T18:28:45;17.00;99.90
3752;DHT22;50827;47.014;7.652;2022-10-16T18:31:37;17.10;99.90
3752;DHT22;50827;47.014;7.652;2022-10-16T18:34:42;17.00;99.90
3752;DHT22;50827;47.014;7.652;2022-10-16T18:37:50;16.80;99.90
3752;DHT22;50827;47.014;7.652;2022-10-16T18:40:50;16.80;99.90
3752;DHT22;50827;47.014;7.652;2022-10-16T18:44:02;16.70;99.90
3752;DHT22;50827;47.014;7.652;2022-10-16T18:46:58;16.60;99.90
3752;DHT22;50827;47.014;7.652;2022-10-16T18:50:16;16.50;99.90
3752;DHT22;50827;47.014;7.652;2022-10-16T18:53:27;16.50;99.90
3752;DHT22;50827;47.014;7.652;2022-10-16T18:57:17;16.50;99.90
3752;DHT22;50827;47.014;7.652;2022-10-16T19:07:38;16.40;99.90
3752;DHT22;50827;47.014;7.652;2022-10-16T19:10:41;16.30;99.90
3752;DHT22;50827;47.014;7.652;2022-10-16T19:13:46;16.30;99.90
3752;DHT22;50827;47.014;7.652;2022-10-16T19:17:05;16.20;99.90
3752;DHT22;50827;47.014;7.652;2022-10-16T19:20:09;16.10;99.90
3752;DHT22;50827;47.014;7.652;2022-10-16T19:23:14;16.10;99.90
3752;DHT22;50827;47.014;7.652;2022-10-16T19:26:15;16.10;99.90
3752;DHT22;50827;47.014;7.652;2022-10-16T19:29:35;16.10;99.90
3752;DHT22;50827;47.014;7.652;2022-10-16T19:32:22;16.10;99.90
3752;DHT22;50827;47.014;7.652;2022-10-16T19:35:15;16.10;99.90
3752;DHT22;50827;47.014;7.652;2022-10-16T19:38:02;16.00;99.90
3752;DHT22;50827;47.014;7.652;2022-10-16T19:40:55;16.00;99.90
3752;DHT22;50827;47.014;7.652;2022-10-16T19:43:53;16.00;99.90
3752;DHT22;50827;47.014;7.652;2022-10-16T19:46:43;15.80;99.90
3752;DHT22;50827;47.014;7.652;2022-10-16T19:49:30;15.80;99.90
3752;DHT22;50827;47.014;7.652;2022-10-16T19:52:20;15.80;99.90
3752;DHT22;50827;47.014;7.652;2022-10-16T19:55:15;15.70;99.90
3752;DHT22;50827;47.014;7.652;2022-10-16T19:58:10;15.70;99.90
3752;DHT22;50827;47.014;7.652;2022-10-16T20:01:17;15.70;99.90
3752;DHT22;50827;47.014;7.652;2022-10-16T20:04:22;15.70;99.90
3752;DHT22;50827;47.014;7.652;2022-10-16T20:07:12;15.70;99.90
3752;DHT22;50827;47.014;7.652;2022-10-16T20:10:21;15.70;99.90
3752;DHT22;50827;47.014;7.652;2022-10-16T20:13:09;15.70;99.90
3752;DHT22;50827;47.014;7.652;2022-10-16T20:16:07;15.60;99.90
3752;DHT22;50827;47.014;7.652;2022-10-16T20:19:11;15.70;99.90